sensor_id;sensor_type;location;lat;lon;timestamp;temperature;humidity
76878;DHT22;65843;50.692;12.844;2024-02-04T00:00:06;19.00;48.50
76878;DHT22;65843;50.692;12.844;2024-02-04T00:01:07;19.00;48.40
76878;DHT22;65843;50.692;12.844;2024-02-04T00:02:08;19.00;48.50
76878;DHT22;65843;50.692;12.844;2024-02-04T00:03:14;19.00;48.70
76878;DHT22;65843;50.692;12.844;2024-02-04T00:04:15;19.00;48.70
76878;DHT22;65843;50.692;12.844;2024-02-04T00:05:16;19.00;48.60
76878;DHT22;65843;50.692;12.844;2024-02-04T00:06:19;19.00;48.70
76878;DHT22;65843;50.692;12.844;2024-02-04T00:07:19;19.00;49.20
76878;DHT22;65843;50.692;12.844;2024-02-04T00:08:20;19.00;49.30
76878;DHT22;65843;50.692;12.844;2024-02-04T00:09:21;19.00;49.30
76878;DHT22;65843;50.692;12.844;2024-02-04T00:10:23;19.00;48.70
76878;DHT22;65843;50.692;12.844;2024-02-04T00:11:24;19.10;49.00
76878;DHT22;65843;50.692;12.844;2024-02-04T00:12:25;19.10;49.10
76878;DHT22;65843;50.692;12.844;2024-02-04T00:13:27;19.10;49.00
76878;DHT22;65843;50.692;12.844;2024-02-04T00:14:28;19.10;48.70
76878;DHT22;65843;50.692;12.844;2024-02-04T00:15:29;19.10;48.90
76878;DHT22;65843;50.692;12.844;2024-02-04T00:16:29;19.10;48.70
76878;DHT22;65843;50.692;12.844;2024-02-04T00:17:30;19.10;49.00
76878;DHT22;65843;50.692;12.844;2024-02-04T00:18:33;19.10;48.80
76878;DHT22;65843;50.692;12.844;2024-02-04T00:19:34;19.10;49.00
76878;DHT22;65843;50.692;12.844;2024-02-04T00:20:35;19.10;49.00
76878;DHT22;65843;50.692;12.844;2024-02-04T00:21:36;19.10;48.70
76878;DHT22;65843;50.692;12.844;2024-02-04T00:22:37;19.00;48.90
76878;DHT22;65843;50.692;12.844;2024-02-04T00:23:38;19.10;48.90
76878;DHT22;65843;50.692;12.844;2024-02-04T00:24:38;19.00;48.90
76878;DHT22;65843;50.692;12.844;2024-02-04T00:25:39;19.00;49.30
76878;DHT22;65843;50.692;12.844;2024-02-04T00:26:42;19.00;49.10
76878;DHT22;65843;50.692;12.844;2024-02-04T00:27:43;19.00;48.80
76878;DHT22;65843;50.692;12.844;2024-02-04T00:28:44;19.00;48.90
76878;DHT22;65843;50.692;12.844;2024-02-04T00:29:44;19.10;48.90
76878;DHT22;65843;50.692;12.844;2024-02-04T00:30:45;19.00;49.10
76878;DHT22;65843;50.692;12.844;2024-02-04T00:31:46;19.00;48.80
76878;DHT22;65843;50.692;12.844;2024-02-04T00:32:47;19.00;48.80
76878;DHT22;65843;50.692;12.844;2024-02-04T00:33:48;19.00;48.90
76878;DHT22;65843;50.692;12.844;2024-02-04T00:34:49;19.00;48.90
76878;DHT22;65843;50.692;12.844;2024-02-04T00:35:50;19.00;48.80
76878;DHT22;65843;50.692;12.844;2024-02-04T00:36:51;19.00;48.80
76878;DHT22;65843;50.692;12.844;2024-02-04T00:37:52;19.00;48.60
76878;DHT22;65843;50.692;12.844;2024-02-04T00:38:52;19.00;48.70
76878;DHT22;65843;50.692;12.844;2024-02-04T00:39:53;19.00;48.90
76878;DHT22;65843;50.692;12.844;2024-02-04T00:40:54;19.00;48.70
76878;DHT22;65843;50.692;12.844;2024-02-04T00:41:57;19.00;48.80
76878;DHT22;65843;50.692;12.844;2024-02-04T00:42:58;19.00;49.00
76878;DHT22;65843;50.692;12.844;2024-02-04T00:43:59;19.00;48.80
76878;DHT22;65843;50.692;12.844;2024-02-04T00:44:59;19.00;48.70
76878;DHT22;65843;50.692;12.844;2024-02-04T00:46:00;19.00;48.70
76878;DHT22;65843;50.692;12.844;2024-02-04T00:47:02;19.00;48.60
76878;DHT22;65843;50.692;12.844;2024-02-04T00:48:03;19.00;48.70
76878;DHT22;65843;50.692;12.844;2024-02-04T00:49:04;19.00;48.70
76878;DHT22;65843;50.692;12.844;2024-02-04T00:50:05;19.00;48.60
76878;DHT22;65843;50.692;12.844;2024-02-04T00:51:06;19.00;48.70
76878;DHT22;65843;50.692;12.844;2024-02-04T00:52:07;19.00;48.80
76878;DHT22;65843;50.692;12.844;2024-02-04T00:53:08;19.00;48.90
76878;DHT22;65843;50.692;12.844;2024-02-04T00:54:09;19.00;49.00
76878;DHT22;65843;50.692;12.844;2024-02-04T00:55:10;19.00;48.60
76878;DHT22;65843;50.692;12.844;2024-02-04T00:56:11;19.00;48.70
76878;DHT22;65843;50.692;12.844;2024-02-04T00:57:12;19.00;48.80
76878;DHT22;65843;50.692;12.844;2024-02-04T00:58:13;19.00;49.10
76878;DHT22;65843;50.692;12.844;2024-02-04T00:59:13;19.00;48.80
76878;DHT22;65843;50.692;12.844;2024-02-04T01:00:15;19.00;49.00
76878;DHT22;65843;50.692;12.844;2024-02-04T01:01:16;19.00;49.00
76878;DHT22;65843;50.692;12.844;2024-02-04T01:02:16;19.00;49.10
76878;DHT22;65843;50.692;12.844;2024-02-04T01:03:17;19.00;49.00
76878;DHT22;65843;50.692;12.844;2024-02-04T01:04:19;19.00;48.90
76878;DHT22;65843;50.692;12.844;2024-02-04T01:05:19;19.00;48.80
76878;DHT22;65843;50.692;12.844;2024-02-04T01:06:20;19.00;49.20
76878;DHT22;65843;50.692;12.844;2024-02-04T01:07:21;19.00;49.00
76878;DHT22;65843;50.692;12.844;2024-02-04T01:08:22;19.00;49.10
76878;DHT22;65843;50.692;12.844;2024-02-04T01:09:23;19.00;49.20
76878;DHT22;65843;50.692;12.844;2024-02-04T01:10:24;19.00;49.10
76878;DHT22;65843;50.692;12.844;2024-02-04T01:11:24;19.00;49.40
76878;DHT22;65843;50.692;12.844;2024-02-04T01:12:25;19.00;49.60
76878;DHT22;65843;50.692;12.844;2024-02-04T01:13:27;19.00;49.40
76878;DHT22;65843;50.692;12.844;2024-02-04T01:14:28;19.00;49.30
76878;DHT22;65843;50.692;12.844;2024-02-04T01:15:29;19.00;49.40
76878;DHT22;65843;50.692;12.844;2024-02-04T01:16:30;19.00;49.30
76878;DHT22;65843;50.692;12.844;2024-02-04T01:17:31;19.00;49.60
76878;DHT22;65843;50.692;12.844;2024-02-04T01:18:32;19.00;49.60
76878;DHT22;65843;50.692;12.844;2024-02-04T01:19:33;19.00;49.30
76878;DHT22;65843;50.692;12.844;2024-02-04T01:20:33;19.00;49.40
76878;DHT22;65843;50.692;12.844;2024-02-04T01:21:34;19.00;49.40
76878;DHT22;65843;50.692;12.844;2024-02-04T01:22:35;19.00;49.50
76878;DHT22;65843;50.692;12.844;2024-02-04T01:23:36;19.00;49.60
76878;DHT22;65843;50.692;12.844;2024-02-04T01:24:37;19.00;49.50
76878;DHT22;65843;50.692;12.844;2024-02-04T01:25:38;19.00;49.50
76878;DHT22;65843;50.692;12.844;2024-02-04T01:26:39;19.00;49.60
76878;DHT22;65843;50.692;12.844;2024-02-04T01:27:40;19.00;49.60
76878;DHT22;65843;50.692;12.844;2024-02-04T01:28:41;19.00;49.40
76878;DHT22;65843;50.692;12.844;2024-02-04T01:29:42;19.00;49.40
76878;DHT22;65843;50.692;12.844;2024-02-04T01:30:42;19.00;49.60
76878;DHT22;65843;50.692;12.844;2024-02-04T01:31:43;19.00;49.60
76878;DHT22;65843;50.692;12.844;2024-02-04T01:32:44;19.00;49.60
76878;DHT22;65843;50.692;12.844;2024-02-04T01:33:46;19.00;49.50
76878;DHT22;65843;50.692;12.844;2024-02-04T01:34:47;19.00;49.30
76878;DHT22;65843;50.692;12.844;2024-02-04T01:35:47;19.00;49.50
76878;DHT22;65843;50.692;12.844;2024-02-04T01:36:48;19.00;49.60
76878;DHT22;65843;50.692;12.844;2024-02-04T01:37:49;19.00;49.50
76878;DHT22;65843;50.692;12.844;2024-02-04T01:38:50;19.00;49.60
76878;DHT22;65843;50.692;12.844;2024-02-04T01:39:51;19.00;49.60
76878;DHT22;65843;50.692;12.844;2024-02-04T01:40:52;19.00;49.40
76878;DHT22;65843;50.692;12.844;2024-02-04T01:41:54;19.00;49.40
76878;DHT22;65843;50.692;12.844;2024-02-04T01:42:55;19.00;49.60
76878;DHT22;65843;50.692;12.844;2024-02-04T01:43:56;19.00;49.90
76878;DHT22;65843;50.692;12.844;2024-02-04T01:44:57;19.00;49.80
76878;DHT22;65843;50.692;12.844;2024-02-04T01:45:58;19.00;49.60
76878;DHT22;65843;50.692;12.844;2024-02-04T01:46:59;19.00;49.90
76878;DHT22;65843;50.692;12.844;2024-02-04T01:48:00;19.00;49.90
76878;DHT22;65843;50.692;12.844;2024-02-04T01:49:01;19.00;49.90
76878;DHT22;65843;50.692;12.844;2024-02-04T01:50:02;19.00;49.80
76878;DHT22;65843;50.692;12.844;2024-02-04T01:51:03;19.00;49.80
76878;DHT22;65843;50.692;12.844;2024-02-04T01:52:05;19.00;49.90
76878;DHT22;65843;50.692;12.844;2024-02-04T01:53:08;19.00;49.90
76878;DHT22;65843;50.692;12.844;2024-02-04T01:54:08;19.00;49.90
76878;DHT22;65843;50.692;12.844;2024-02-04T01:55:09;19.00;49.70
76878;DHT22;65843;50.692;12.844;2024-02-04T01:56:11;19.00;50.00
76878;DHT22;65843;50.692;12.844;2024-02-04T01:57:13;19.00;49.80
76878;DHT22;65843;50.692;12.844;2024-02-04T01:58:14;19.00;49.70
76878;DHT22;65843;50.692;12.844;2024-02-04T01:59:15;19.00;49.70
76878;DHT22;65843;50.692;12.844;2024-02-04T02:00:16;19.00;50.00
76878;DHT22;65843;50.692;12.844;2024-02-04T02:01:19;19.00;50.00
76878;DHT22;65843;50.692;12.844;2024-02-04T02:02:20;19.00;50.00
76878;DHT22;65843;50.692;12.844;2024-02-04T02:03:21;19.00;50.00
76878;DHT22;65843;50.692;12.844;2024-02-04T02:04:22;19.00;49.80
76878;DHT22;65843;50.692;12.844;2024-02-04T02:05:23;19.10;50.00
76878;DHT22;65843;50.692;12.844;2024-02-04T02:06:24;19.00;49.80
76878;DHT22;65843;50.692;12.844;2024-02-04T02:07:24;19.00;49.90
76878;DHT22;65843;50.692;12.844;2024-02-04T02:08:27;19.10;49.80
76878;DHT22;65843;50.692;12.844;2024-02-04T02:09:28;19.10;49.80
76878;DHT22;65843;50.692;12.844;2024-02-04T02:10:30;19.10;49.60
76878;DHT22;65843;50.692;12.844;2024-02-04T02:11:37;19.10;49.70
76878;DHT22;65843;50.692;12.844;2024-02-04T02:12:47;19.10;50.00
76878;DHT22;65843;50.692;12.844;2024-02-04T02:13:50;19.10;49.80
76878;DHT22;65843;50.692;12.844;2024-02-04T02:15:35;19.10;49.80
76878;DHT22;65843;50.692;12.844;2024-02-04T02:16:16;19.10;49.70
76878;DHT22;65843;50.692;12.844;2024-02-04T02:17:21;19.10;49.80
76878;DHT22;65843;50.692;12.844;2024-02-04T02:18:26;19.10;50.10
76878;DHT22;65843;50.692;12.844;2024-02-04T02:19:46;19.10;50.20
76878;DHT22;65843;50.692;12.844;2024-02-04T02:21:11;19.10;49.90
76878;DHT22;65843;50.692;12.844;2024-02-04T02:22:29;19.10;49.70
76878;DHT22;65843;50.692;12.844;2024-02-04T02:23:52;19.10;49.70
76878;DHT22;65843;50.692;12.844;2024-02-04T02:24:56;19.10;50.00
76878;DHT22;65843;50.692;12.844;2024-02-04T02:25:57;19.10;50.00
76878;DHT22;65843;50.692;12.844;2024-02-04T02:26:58;19.10;50.20
76878;DHT22;65843;50.692;12.844;2024-02-04T02:27:59;19.10;49.70
76878;DHT22;65843;50.692;12.844;2024-02-04T02:29:00;19.10;50.20
76878;DHT22;65843;50.692;12.844;2024-02-04T02:30:01;19.10;49.80
76878;DHT22;65843;50.692;12.844;2024-02-04T02:31:02;19.10;50.30
76878;DHT22;65843;50.692;12.844;2024-02-04T02:32:03;19.10;50.20
76878;DHT22;65843;50.692;12.844;2024-02-04T02:33:04;19.10;50.30
76878;DHT22;65843;50.692;12.844;2024-02-04T02:34:06;19.10;50.30
76878;DHT22;65843;50.692;12.844;2024-02-04T02:35:07;19.10;50.30
76878;DHT22;65843;50.692;12.844;2024-02-04T02:36:10;19.10;50.20
76878;DHT22;65843;50.692;12.844;2024-02-04T02:37:22;19.10;50.00
76878;DHT22;65843;50.692;12.844;2024-02-04T02:38:30;19.10;50.10
76878;DHT22;65843;50.692;12.844;2024-02-04T02:39:34;19.10;50.00
76878;DHT22;65843;50.692;12.844;2024-02-04T02:40:43;19.10;50.00
76878;DHT22;65843;50.692;12.844;2024-02-04T02:41:45;19.10;50.20
76878;DHT22;65843;50.692;12.844;2024-02-04T02:42:49;19.10;50.30
76878;DHT22;65843;50.692;12.844;2024-02-04T02:43:52;19.10;49.70
76878;DHT22;65843;50.692;12.844;2024-02-04T02:44:54;19.10;49.90
76878;DHT22;65843;50.692;12.844;2024-02-04T02:45:56;19.10;50.00
76878;DHT22;65843;50.692;12.844;2024-02-04T02:46:57;19.10;49.70
76878;DHT22;65843;50.692;12.844;2024-02-04T02:47:59;19.10;49.80
76878;DHT22;65843;50.692;12.844;2024-02-04T02:49:01;19.10;49.80
76878;DHT22;65843;50.692;12.844;2024-02-04T02:50:02;19.00;49.80
76878;DHT22;65843;50.692;12.844;2024-02-04T02:51:04;19.10;49.80
76878;DHT22;65843;50.692;12.844;2024-02-04T02:52:05;19.10;49.80
76878;DHT22;65843;50.692;12.844;2024-02-04T02:53:06;19.10;49.80
76878;DHT22;65843;50.692;12.844;2024-02-04T02:54:07;19.00;49.80
76878;DHT22;65843;50.692;12.844;2024-02-04T02:55:08;19.00;49.80
76878;DHT22;65843;50.692;12.844;2024-02-04T02:56:09;19.00;49.70
76878;DHT22;65843;50.692;12.844;2024-02-04T02:57:10;19.00;49.70
76878;DHT22;65843;50.692;12.844;2024-02-04T02:58:10;19.00;49.70
76878;DHT22;65843;50.692;12.844;2024-02-04T02:59:11;19.00;49.70
76878;DHT22;65843;50.692;12.844;2024-02-04T03:00:12;19.00;49.70
76878;DHT22;65843;50.692;12.844;2024-02-04T03:01:13;19.00;49.60
76878;DHT22;65843;50.692;12.844;2024-02-04T03:02:14;19.00;49.80
76878;DHT22;65843;50.692;12.844;2024-02-04T03:03:15;19.00;49.80
76878;DHT22;65843;50.692;12.844;2024-02-04T03:04:16;19.00;50.10
76878;DHT22;65843;50.692;12.844;2024-02-04T03:05:17;19.00;50.10
76878;DHT22;65843;50.692;12.844;2024-02-04T03:06:18;19.00;50.10
76878;DHT22;65843;50.692;12.844;2024-02-04T03:07:19;19.00;50.00
76878;DHT22;65843;50.692;12.844;2024-02-04T03:08:20;19.00;49.90
76878;DHT22;65843;50.692;12.844;2024-02-04T03:09:21;19.00;50.00
76878;DHT22;65843;50.692;12.844;2024-02-04T03:10:21;19.00;49.80
76878;DHT22;65843;50.692;12.844;2024-02-04T03:11:22;19.00;49.90
76878;DHT22;65843;50.692;12.844;2024-02-04T03:12:23;19.00;49.60
76878;DHT22;65843;50.692;12.844;2024-02-04T03:13:24;19.00;50.10
76878;DHT22;65843;50.692;12.844;2024-02-04T03:14:25;19.00;50.00
76878;DHT22;65843;50.692;12.844;2024-02-04T03:15:26;19.00;49.60
76878;DHT22;65843;50.692;12.844;2024-02-04T03:16:26;19.00;50.10
76878;DHT22;65843;50.692;12.844;2024-02-04T03:17:27;19.00;50.00
76878;DHT22;65843;50.692;12.844;2024-02-04T03:18:28;19.00;49.70
76878;DHT22;65843;50.692;12.844;2024-02-04T03:19:29;19.00;50.10
76878;DHT22;65843;50.692;12.844;2024-02-04T03:20:30;19.00;49.90
76878;DHT22;65843;50.692;12.844;2024-02-04T03:21:31;19.00;50.10
76878;DHT22;65843;50.692;12.844;2024-02-04T03:22:31;19.00;50.00
76878;DHT22;65843;50.692;12.844;2024-02-04T03:23:32;19.00;50.00
76878;DHT22;65843;50.692;12.844;2024-02-04T03:24:33;19.00;49.80
76878;DHT22;65843;50.692;12.844;2024-02-04T03:25:34;19.00;49.80
76878;DHT22;65843;50.692;12.844;2024-02-04T03:26:35;19.00;49.90
76878;DHT22;65843;50.692;12.844;2024-02-04T03:27:36;19.00;50.00
76878;DHT22;65843;50.692;12.844;2024-02-04T03:28:36;19.00;49.80
76878;DHT22;65843;50.692;12.844;2024-02-04T03:29:37;19.00;49.90
76878;DHT22;65843;50.692;12.844;2024-02-04T03:30:38;19.00;50.00
76878;DHT22;65843;50.692;12.844;2024-02-04T03:31:39;19.00;50.00
76878;DHT22;65843;50.692;12.844;2024-02-04T03:32:40;19.00;50.00
76878;DHT22;65843;50.692;12.844;2024-02-04T03:33:41;19.00;49.90
76878;DHT22;65843;50.692;12.844;2024-02-04T03:34:42;19.00;49.90
76878;DHT22;65843;50.692;12.844;2024-02-04T03:35:43;19.00;50.00
76878;DHT22;65843;50.692;12.844;2024-02-04T03:36:43;19.00;50.00
76878;DHT22;65843;50.692;12.844;2024-02-04T03:37:44;19.00;50.10
76878;DHT22;65843;50.692;12.844;2024-02-04T03:38:45;19.00;49.80
76878;DHT22;65843;50.692;12.844;2024-02-04T03:39:46;19.00;50.00
76878;DHT22;65843;50.692;12.844;2024-02-04T03:40:47;19.00;50.00
76878;DHT22;65843;50.692;12.844;2024-02-04T03:41:49;19.00;50.00
76878;DHT22;65843;50.692;12.844;2024-02-04T03:42:50;19.00;50.10
76878;DHT22;65843;50.692;12.844;2024-02-04T03:43:51;19.00;50.10
76878;DHT22;65843;50.692;12.844;2024-02-04T03:44:52;19.00;50.00
76878;DHT22;65843;50.692;12.844;2024-02-04T03:45:53;19.00;50.20
76878;DHT22;65843;50.692;12.844;2024-02-04T03:46:53;19.00;49.80
76878;DHT22;65843;50.692;12.844;2024-02-04T03:47:54;19.00;50.00
76878;DHT22;65843;50.692;12.844;2024-02-04T03:48:55;19.00;50.00
76878;DHT22;65843;50.692;12.844;2024-02-04T03:49:56;19.00;49.90
76878;DHT22;65843;50.692;12.844;2024-02-04T03:50:57;19.00;49.80
76878;DHT22;65843;50.692;12.844;2024-02-04T03:51:58;19.00;49.80
76878;DHT22;65843;50.692;12.844;2024-02-04T03:52:59;19.00;50.00
76878;DHT22;65843;50.692;12.844;2024-02-04T03:53:59;19.00;49.90
76878;DHT22;65843;50.692;12.844;2024-02-04T03:55:00;19.00;49.70
76878;DHT22;65843;50.692;12.844;2024-02-04T03:56:01;19.00;50.00
76878;DHT22;65843;50.692;12.844;2024-02-04T03:57:02;19.00;49.90
76878;DHT22;65843;50.692;12.844;2024-02-04T03:58:03;19.00;50.00
76878;DHT22;65843;50.692;12.844;2024-02-04T03:59:04;19.00;50.00
76878;DHT22;65843;50.692;12.844;2024-02-04T04:00:05;19.00;49.90
76878;DHT22;65843;50.692;12.844;2024-02-04T04:01:11;19.00;50.00
76878;DHT22;65843;50.692;12.844;2024-02-04T04:02:12;19.00;50.00
76878;DHT22;65843;50.692;12.844;2024-02-04T04:03:13;19.00;49.70
76878;DHT22;65843;50.692;12.844;2024-02-04T04:04:14;19.00;49.90
76878;DHT22;65843;50.692;12.844;2024-02-04T04:05:15;19.00;49.80
76878;DHT22;65843;50.692;12.844;2024-02-04T04:06:16;19.00;49.70
76878;DHT22;65843;50.692;12.844;2024-02-04T04:07:17;19.00;49.70
76878;DHT22;65843;50.692;12.844;2024-02-04T04:08:18;19.00;49.70
76878;DHT22;65843;50.692;12.844;2024-02-04T04:09:19;19.00;49.80
76878;DHT22;65843;50.692;12.844;2024-02-04T04:10:20;19.00;49.80
76878;DHT22;65843;50.692;12.844;2024-02-04T04:11:21;19.00;49.80
76878;DHT22;65843;50.692;12.844;2024-02-04T04:12:21;19.00;49.70
76878;DHT22;65843;50.692;12.844;2024-02-04T04:13:22;19.00;49.40
76878;DHT22;65843;50.692;12.844;2024-02-04T04:14:23;19.00;49.50
76878;DHT22;65843;50.692;12.844;2024-02-04T04:15:24;19.00;49.40
76878;DHT22;65843;50.692;12.844;2024-02-04T04:16:25;19.00;49.70
76878;DHT22;65843;50.692;12.844;2024-02-04T04:17:26;19.00;49.60
76878;DHT22;65843;50.692;12.844;2024-02-04T04:18:26;19.00;49.60
76878;DHT22;65843;50.692;12.844;2024-02-04T04:19:27;19.00;49.50
76878;DHT22;65843;50.692;12.844;2024-02-04T04:20:28;19.00;49.80
76878;DHT22;65843;50.692;12.844;2024-02-04T04:21:29;19.00;49.40
76878;DHT22;65843;50.692;12.844;2024-02-04T04:22:30;19.00;49.40
76878;DHT22;65843;50.692;12.844;2024-02-04T04:23:31;19.00;49.40
76878;DHT22;65843;50.692;12.844;2024-02-04T04:24:31;19.00;49.70
76878;DHT22;65843;50.692;12.844;2024-02-04T04:25:32;19.00;49.30
76878;DHT22;65843;50.692;12.844;2024-02-04T04:26:33;19.00;49.20
76878;DHT22;65843;50.692;12.844;2024-02-04T04:27:34;19.00;49.70
76878;DHT22;65843;50.692;12.844;2024-02-04T04:28:35;19.00;49.60
76878;DHT22;65843;50.692;12.844;2024-02-04T04:29:36;19.00;49.70
76878;DHT22;65843;50.692;12.844;2024-02-04T04:30:37;18.90;49.70
76878;DHT22;65843;50.692;12.844;2024-02-04T04:31:38;19.00;49.40
76878;DHT22;65843;50.692;12.844;2024-02-04T04:32:39;19.00;49.40
76878;DHT22;65843;50.692;12.844;2024-02-04T04:33:40;19.00;49.90
76878;DHT22;65843;50.692;12.844;2024-02-04T04:34:41;19.00;50.10
76878;DHT22;65843;50.692;12.844;2024-02-04T04:35:42;18.90;50.00
76878;DHT22;65843;50.692;12.844;2024-02-04T04:36:42;19.00;49.90
76878;DHT22;65843;50.692;12.844;2024-02-04T04:37:43;19.00;50.10
76878;DHT22;65843;50.692;12.844;2024-02-04T04:38:44;19.00;49.80
76878;DHT22;65843;50.692;12.844;2024-02-04T04:39:45;19.00;49.80
76878;DHT22;65843;50.692;12.844;2024-02-04T04:40:46;19.00;50.10
76878;DHT22;65843;50.692;12.844;2024-02-04T04:41:47;18.90;50.00
76878;DHT22;65843;50.692;12.844;2024-02-04T04:42:48;18.90;50.10
76878;DHT22;65843;50.692;12.844;2024-02-04T04:43:48;18.90;50.00
76878;DHT22;65843;50.692;12.844;2024-02-04T04:44:50;18.90;49.90
76878;DHT22;65843;50.692;12.844;2024-02-04T04:45:50;19.00;49.80
76878;DHT22;65843;50.692;12.844;2024-02-04T04:46:51;19.00;50.10
76878;DHT22;65843;50.692;12.844;2024-02-04T04:47:52;19.00;50.10
76878;DHT22;65843;50.692;12.844;2024-02-04T04:48:53;19.00;50.00
76878;DHT22;65843;50.692;12.844;2024-02-04T04:49:58;19.00;49.90
76878;DHT22;65843;50.692;12.844;2024-02-04T04:50:59;19.00;50.10
76878;DHT22;65843;50.692;12.844;2024-02-04T04:52:00;19.00;50.10
76878;DHT22;65843;50.692;12.844;2024-02-04T04:53:01;18.90;50.00
76878;DHT22;65843;50.692;12.844;2024-02-04T04:54:01;18.90;50.20
76878;DHT22;65843;50.692;12.844;2024-02-04T04:55:02;19.00;50.00
76878;DHT22;65843;50.692;12.844;2024-02-04T04:56:04;18.90;50.20
76878;DHT22;65843;50.692;12.844;2024-02-04T04:57:05;19.00;50.30
76878;DHT22;65843;50.692;12.844;2024-02-04T04:58:06;19.00;50.10
76878;DHT22;65843;50.692;12.844;2024-02-04T04:59:07;19.00;50.20
76878;DHT22;65843;50.692;12.844;2024-02-04T05:00:08;19.00;50.30
76878;DHT22;65843;50.692;12.844;2024-02-04T05:01:10;19.00;50.20
76878;DHT22;65843;50.692;12.844;2024-02-04T05:02:11;19.00;50.30
76878;DHT22;65843;50.692;12.844;2024-02-04T05:03:12;19.00;50.20
76878;DHT22;65843;50.692;12.844;2024-02-04T05:04:13;19.00;50.10
76878;DHT22;65843;50.692;12.844;2024-02-04T05:05:14;19.00;50.20
76878;DHT22;65843;50.692;12.844;2024-02-04T05:06:15;19.00;50.20
76878;DHT22;65843;50.692;12.844;2024-02-04T05:07:16;19.00;50.30
76878;DHT22;65843;50.692;12.844;2024-02-04T05:08:17;19.00;50.30
76878;DHT22;65843;50.692;12.844;2024-02-04T05:09:18;19.00;50.40
76878;DHT22;65843;50.692;12.844;2024-02-04T05:10:19;19.00;50.60
76878;DHT22;65843;50.692;12.844;2024-02-04T05:11:19;19.00;50.70
76878;DHT22;65843;50.692;12.844;2024-02-04T05:12:20;19.00;50.70
76878;DHT22;65843;50.692;12.844;2024-02-04T05:13:21;19.00;50.80
76878;DHT22;65843;50.692;12.844;2024-02-04T05:14:22;19.00;50.80
76878;DHT22;65843;50.692;12.844;2024-02-04T05:15:23;19.00;50.80
76878;DHT22;65843;50.692;12.844;2024-02-04T05:16:25;19.00;51.00
76878;DHT22;65843;50.692;12.844;2024-02-04T05:17:26;19.00;50.80
76878;DHT22;65843;50.692;12.844;2024-02-04T05:18:27;19.10;50.80
76878;DHT22;65843;50.692;12.844;2024-02-04T05:19:28;19.00;50.80
76878;DHT22;65843;50.692;12.844;2024-02-04T05:20:29;19.10;50.70
76878;DHT22;65843;50.692;12.844;2024-02-04T05:21:30;19.10;50.70
76878;DHT22;65843;50.692;12.844;2024-02-04T05:22:31;19.10;50.50
76878;DHT22;65843;50.692;12.844;2024-02-04T05:23:31;19.00;50.50
76878;DHT22;65843;50.692;12.844;2024-02-04T05:24:32;19.00;50.20
76878;DHT22;65843;50.692;12.844;2024-02-04T05:25:33;19.00;50.10
76878;DHT22;65843;50.692;12.844;2024-02-04T05:26:34;19.00;49.90
76878;DHT22;65843;50.692;12.844;2024-02-04T05:27:36;19.00;49.90
76878;DHT22;65843;50.692;12.844;2024-02-04T05:28:37;19.00;49.50
76878;DHT22;65843;50.692;12.844;2024-02-04T05:29:38;19.00;49.50
76878;DHT22;65843;50.692;12.844;2024-02-04T05:30:39;19.00;49.50
76878;DHT22;65843;50.692;12.844;2024-02-04T05:31:40;19.00;49.60
76878;DHT22;65843;50.692;12.844;2024-02-04T05:32:41;19.00;49.40
76878;DHT22;65843;50.692;12.844;2024-02-04T05:33:42;19.00;49.20
76878;DHT22;65843;50.692;12.844;2024-02-04T05:34:43;19.00;49.50
76878;DHT22;65843;50.692;12.844;2024-02-04T05:35:44;19.00;49.40
76878;DHT22;65843;50.692;12.844;2024-02-04T05:36:45;19.00;49.30
76878;DHT22;65843;50.692;12.844;2024-02-04T05:37:45;19.00;49.30
76878;DHT22;65843;50.692;12.844;2024-02-04T05:38:46;18.90;49.50
76878;DHT22;65843;50.692;12.844;2024-02-04T05:39:47;18.90;49.50
76878;DHT22;65843;50.692;12.844;2024-02-04T05:40:48;18.90;49.20
76878;DHT22;65843;50.692;12.844;2024-02-04T05:41:49;18.90;49.40
76878;DHT22;65843;50.692;12.844;2024-02-04T05:42:50;18.90;49.30
76878;DHT22;65843;50.692;12.844;2024-02-04T05:43:51;18.90;49.40
76878;DHT22;65843;50.692;12.844;2024-02-04T05:44:52;18.90;49.50
76878;DHT22;65843;50.692;12.844;2024-02-04T05:45:53;18.90;49.60
76878;DHT22;65843;50.692;12.844;2024-02-04T05:46:55;18.90;49.30
76878;DHT22;65843;50.692;12.844;2024-02-04T05:47:56;18.90;49.10
76878;DHT22;65843;50.692;12.844;2024-02-04T05:48:57;18.90;49.50
76878;DHT22;65843;50.692;12.844;2024-02-04T05:49:57;18.90;49.40
76878;DHT22;65843;50.692;12.844;2024-02-04T05:50:59;18.90;49.00
76878;DHT22;65843;50.692;12.844;2024-02-04T05:52:00;18.80;49.10
76878;DHT22;65843;50.692;12.844;2024-02-04T05:53:01;18.80;49.40
76878;DHT22;65843;50.692;12.844;2024-02-04T05:54:02;18.80;49.20
76878;DHT22;65843;50.692;12.844;2024-02-04T05:55:02;18.80;49.00
76878;DHT22;65843;50.692;12.844;2024-02-04T05:56:03;18.80;48.90
76878;DHT22;65843;50.692;12.844;2024-02-04T05:57:04;18.80;49.20
76878;DHT22;65843;50.692;12.844;2024-02-04T05:58:06;18.80;49.30
76878;DHT22;65843;50.692;12.844;2024-02-04T05:59:07;18.80;49.10
76878;DHT22;65843;50.692;12.844;2024-02-04T06:00:08;18.80;49.40
76878;DHT22;65843;50.692;12.844;2024-02-04T06:01:10;18.80;49.10
76878;DHT22;65843;50.692;12.844;2024-02-04T06:02:11;18.80;49.00
76878;DHT22;65843;50.692;12.844;2024-02-04T06:03:12;18.80;48.80
76878;DHT22;65843;50.692;12.844;2024-02-04T06:04:14;18.80;48.90
76878;DHT22;65843;50.692;12.844;2024-02-04T06:05:15;18.80;49.10
76878;DHT22;65843;50.692;12.844;2024-02-04T06:06:16;18.80;49.40
76878;DHT22;65843;50.692;12.844;2024-02-04T06:07:20;18.80;49.00
76878;DHT22;65843;50.692;12.844;2024-02-04T06:08:21;18.80;49.30
76878;DHT22;65843;50.692;12.844;2024-02-04T06:09:21;18.80;49.00
76878;DHT22;65843;50.692;12.844;2024-02-04T06:10:22;18.80;48.80
76878;DHT22;65843;50.692;12.844;2024-02-04T06:11:23;18.80;49.00
76878;DHT22;65843;50.692;12.844;2024-02-04T06:12:24;18.80;49.10
76878;DHT22;65843;50.692;12.844;2024-02-04T06:13:25;18.70;48.90
76878;DHT22;65843;50.692;12.844;2024-02-04T06:14:26;18.80;48.90
76878;DHT22;65843;50.692;12.844;2024-02-04T06:15:27;18.70;48.80
76878;DHT22;65843;50.692;12.844;2024-02-04T06:16:27;18.70;48.80
76878;DHT22;65843;50.692;12.844;2024-02-04T06:17:28;18.70;48.70
76878;DHT22;65843;50.692;12.844;2024-02-04T06:18:29;18.70;48.80
76878;DHT22;65843;50.692;12.844;2024-02-04T06:19:30;18.70;48.70
76878;DHT22;65843;50.692;12.844;2024-02-04T06:20:31;18.70;48.70
76878;DHT22;65843;50.692;12.844;2024-02-04T06:21:32;18.70;49.20